sensor_id;sensor_type;location;lat;lon;timestamp;P1;durP1;ratioP1;P2;durP2;ratioP2
38113;SDS011;23926;53.222;6.354;2022-10-04T00:06:58;16.25;;;11.40;;
38113;SDS011;23926;53.222;6.354;2022-10-04T00:09:30;24.02;;;12.73;;
38113;SDS011;23926;53.222;6.354;2022-10-04T00:12:00;21.00;;;11.40;;
38113;SDS011;23926;53.222;6.354;2022-10-04T00:14:32;18.45;;;12.93;;
38113;SDS011;23926;53.222;6.354;2022-10-04T00:17:06;28.20;;;15.50;;
38113;SDS011;23926;53.222;6.354;2022-10-04T00:19:39;16.02;;;9.77;;
38113;SDS011;23926;53.222;6.354;2022-10-04T00:22:08;19.58;;;9.95;;
38113;SDS011;23926;53.222;6.354;2022-10-04T00:27:38;22.88;;;12.30;;
38113;SDS011;23926;53.222;6.354;2022-10-04T00:30:24;23.73;;;14.32;;
38113;SDS011;23926;53.222;6.354;2022-10-04T00:32:59;19.73;;;13.95;;
38113;SDS011;23926;53.222;6.354;2022-10-04T00:37:58;22.15;;;12.88;;
38113;SDS011;23926;53.222;6.354;2022-10-04T00:40:30;20.38;;;11.18;;
38113;SDS011;23926;53.222;6.354;2022-10-04T00:45:40;20.70;;;13.00;;
38113;SDS011;23926;53.222;6.354;2022-10-04T00:51:04;18.05;;;11.82;;
38113;SDS011;23926;53.222;6.354;2022-10-04T00:53:58;12.80;;;9.27;;
38113;SDS011;23926;53.222;6.354;2022-10-04T01:01:48;22.10;;;13.35;;
38113;SDS011;23926;53.222;6.354;2022-10-04T01:04:30;26.35;;;16.23;;
38113;SDS011;23926;53.222;6.354;2022-10-04T01:07:01;20.80;;;11.35;;
38113;SDS011;23926;53.222;6.354;2022-10-04T01:09:29;21.70;;;13.48;;
38113;SDS011;23926;53.222;6.354;2022-10-04T01:12:06;23.80;;;14.60;;
38113;SDS011;23926;53.222;6.354;2022-10-04T01:15:02;26.15;;;15.43;;
38113;SDS011;23926;53.222;6.354;2022-10-04T01:17:28;23.35;;;15.20;;
38113;SDS011;23926;53.222;6.354;2022-10-04T01:19:54;29.15;;;16.77;;
38113;SDS011;23926;53.222;6.354;2022-10-04T01:28:09;19.67;;;11.77;;
38113;SDS011;23926;53.222;6.354;2022-10-04T01:30:34;19.85;;;12.77;;
38113;SDS011;23926;53.222;6.354;2022-10-04T01:33:00;14.27;;;11.82;;
38113;SDS011;23926;53.222;6.354;2022-10-04T01:35:26;32.00;;;16.73;;
38113;SDS011;23926;53.222;6.354;2022-10-04T01:37:52;20.45;;;13.00;;
38113;SDS011;23926;53.222;6.354;2022-10-04T01:40:19;13.48;;;9.80;;
38113;SDS011;23926;53.222;6.354;2022-10-04T01:42:52;25.73;;;12.75;;
38113;SDS011;23926;53.222;6.354;2022-10-04T01:45:34;13.20;;;9.95;;
38113;SDS011;23926;53.222;6.354;2022-10-04T01:48:10;26.50;;;13.52;;
38113;SDS011;23926;53.222;6.354;2022-10-04T01:50:44;15.63;;;9.50;;
38113;SDS011;23926;53.222;6.354;2022-10-04T01:53:21;25.00;;;13.27;;
38113;SDS011;23926;53.222;6.354;2022-10-04T01:56:03;11.80;;;8.68;;
38113;SDS011;23926;53.222;6.354;2022-10-04T02:01:32;19.35;;;11.88;;
38113;SDS011;23926;53.222;6.354;2022-10-04T02:03:58;23.58;;;10.73;;
38113;SDS011;23926;53.222;6.354;2022-10-04T02:06:34;20.00;;;11.97;;
38113;SDS011;23926;53.222;6.354;2022-10-04T02:09:06;18.05;;;11.93;;
38113;SDS011;23926;53.222;6.354;2022-10-04T02:11:34;19.65;;;11.05;;
38113;SDS011;23926;53.222;6.354;2022-10-04T02:14:01;22.25;;;11.02;;
38113;SDS011;23926;53.222;6.354;2022-10-04T02:16:29;20.55;;;13.07;;
38113;SDS011;23926;53.222;6.354;2022-10-04T02:18:59;22.85;;;11.45;;
38113;SDS011;23926;53.222;6.354;2022-10-04T02:21:27;24.88;;;14.35;;
38113;SDS011;23926;53.222;6.354;2022-10-04T02:23:53;26.52;;;11.50;;
38113;SDS011;23926;53.222;6.354;2022-10-04T02:26:19;21.92;;;13.70;;
38113;SDS011;23926;53.222;6.354;2022-10-04T02:28:45;17.67;;;11.70;;
38113;SDS011;23926;53.222;6.354;2022-10-04T02:31:11;18.40;;;11.65;;
38113;SDS011;23926;53.222;6.354;2022-10-04T02:36:25;24.00;;;13.40;;
38113;SDS011;23926;53.222;6.354;2022-10-04T02:38:53;15.18;;;9.48;;
38113;SDS011;23926;53.222;6.354;2022-10-04T02:41:21;22.40;;;12.52;;
38113;SDS011;23926;53.222;6.354;2022-10-04T02:43:55;26.45;;;13.30;;
38113;SDS011;23926;53.222;6.354;2022-10-04T02:46:41;19.30;;;12.85;;
38113;SDS011;23926;53.222;6.354;2022-10-04T02:49:33;22.77;;;12.60;;
38113;SDS011;23926;53.222;6.354;2022-10-04T02:52:14;18.70;;;11.50;;
38113;SDS011;23926;53.222;6.354;2022-10-04T02:54:57;21.88;;;11.05;;
38113;SDS011;23926;53.222;6.354;2022-10-04T02:57:34;19.48;;;11.05;;
38113;SDS011;23926;53.222;6.354;2022-10-04T03:00:16;21.05;;;11.98;;
38113;SDS011;23926;53.222;6.354;2022-10-04T03:05:44;17.50;;;10.18;;
38113;SDS011;23926;53.222;6.354;2022-10-04T03:08:22;18.42;;;10.80;;
38113;SDS011;23926;53.222;6.354;2022-10-04T03:10:48;22.55;;;12.57;;
38113;SDS011;23926;53.222;6.354;2022-10-04T03:13:14;21.08;;;11.77;;
38113;SDS011;23926;53.222;6.354;2022-10-04T03:15:44;23.10;;;13.60;;
38113;SDS011;23926;53.222;6.354;2022-10-04T03:18:11;33.90;;;15.63;;
38113;SDS011;23926;53.222;6.354;2022-10-04T03:20:38;27.17;;;14.63;;
38113;SDS011;23926;53.222;6.354;2022-10-04T03:23:05;13.32;;;9.48;;
38113;SDS011;23926;53.222;6.354;2022-10-04T03:28:44;18.70;;;11.48;;
38113;SDS011;23926;53.222;6.354;2022-10-04T03:31:11;19.95;;;11.90;;
38113;SDS011;23926;53.222;6.354;2022-10-04T03:33:38;19.15;;;10.60;;
38113;SDS011;23926;53.222;6.354;2022-10-04T03:36:04;25.25;;;11.95;;
38113;SDS011;23926;53.222;6.354;2022-10-04T03:38:31;17.42;;;11.15;;
38113;SDS011;23926;53.222;6.354;2022-10-04T03:40:59;20.92;;;12.57;;
38113;SDS011;23926;53.222;6.354;2022-10-04T03:43:29;23.67;;;14.43;;
38113;SDS011;23926;53.222;6.354;2022-10-04T03:45:58;31.80;;;17.92;;
38113;SDS011;23926;53.222;6.354;2022-10-04T03:48:32;34.72;;;17.23;;
38113;SDS011;23926;53.222;6.354;2022-10-04T03:50:59;20.90;;;12.45;;
38113;SDS011;23926;53.222;6.354;2022-10-04T03:53:30;28.85;;;14.85;;
38113;SDS011;23926;53.222;6.354;2022-10-04T03:56:00;21.67;;;12.32;;
38113;SDS011;23926;53.222;6.354;2022-10-04T03:58:27;24.00;;;14.60;;
38113;SDS011;23926;53.222;6.354;2022-10-04T04:03:29;35.45;;;14.63;;
38113;SDS011;23926;53.222;6.354;2022-10-04T04:06:03;23.08;;;13.50;;
38113;SDS011;23926;53.222;6.354;2022-10-04T04:08:40;19.65;;;11.23;;
38113;SDS011;23926;53.222;6.354;2022-10-04T04:11:11;22.25;;;12.35;;
38113;SDS011;23926;53.222;6.354;2022-10-04T04:16:33;20.27;;;13.13;;
38113;SDS011;23926;53.222;6.354;2022-10-04T04:19:01;21.85;;;13.00;;
38113;SDS011;23926;53.222;6.354;2022-10-04T04:21:28;19.10;;;12.20;;
38113;SDS011;23926;53.222;6.354;2022-10-04T04:23:57;23.50;;;13.38;;
38113;SDS011;23926;53.222;6.354;2022-10-04T04:27:07;23.25;;;14.68;;
38113;SDS011;23926;53.222;6.354;2022-10-04T04:29:19;30.10;;;15.50;;
38113;SDS011;23926;53.222;6.354;2022-10-04T04:32:07;29.08;;;16.05;;
38113;SDS011;23926;53.222;6.354;2022-10-04T04:40:45;19.45;;;12.52;;
38113;SDS011;23926;53.222;6.354;2022-10-04T04:43:12;21.88;;;13.80;;
38113;SDS011;23926;53.222;6.354;2022-10-04T04:45:42;24.80;;;13.18;;
38113;SDS011;23926;53.222;6.354;2022-10-04T04:48:10;24.85;;;15.65;;
38113;SDS011;23926;53.222;6.354;2022-10-04T04:50:38;29.27;;;16.58;;
38113;SDS011;23926;53.222;6.354;2022-10-04T04:55:41;27.20;;;16.08;;
38113;SDS011;23926;53.222;6.354;2022-10-04T04:58:10;17.95;;;12.85;;
38113;SDS011;23926;53.222;6.354;2022-10-04T05:00:45;42.00;;;19.70;;
38113;SDS011;23926;53.222;6.354;2022-10-04T05:03:18;33.25;;;19.77;;
38113;SDS011;23926;53.222;6.354;2022-10-04T05:05:45;26.63;;;15.50;;
38113;SDS011;23926;53.222;6.354;2022-10-04T05:08:13;33.55;;;17.23;;
38113;SDS011;23926;53.222;6.354;2022-10-04T05:13:40;26.08;;;15.88;;
38113;SDS011;23926;53.222;6.354;2022-10-04T05:16:18;23.02;;;14.32;;
38113;SDS011;23926;53.222;6.354;2022-10-04T05:18:57;22.25;;;14.52;;
38113;SDS011;23926;53.222;6.354;2022-10-04T05:21:26;41.15;;;20.88;;
38113;SDS011;23926;53.222;6.354;2022-10-04T05:23:54;26.67;;;16.23;;
38113;SDS011;23926;53.222;6.354;2022-10-04T05:26:31;15.30;;;10.95;;
38113;SDS011;23926;53.222;6.354;2022-10-04T05:28:58;16.83;;;10.88;;
38113;SDS011;23926;53.222;6.354;2022-10-04T05:31:54;18.75;;;13.63;;
38113;SDS011;23926;53.222;6.354;2022-10-04T05:34:28;23.55;;;14.50;;
38113;SDS011;23926;53.222;6.354;2022-10-04T05:36:59;22.15;;;15.25;;
38113;SDS011;23926;53.222;6.354;2022-10-04T05:45:40;21.02;;;14.75;;
38113;SDS011;23926;53.222;6.354;2022-10-04T05:47:48;24.02;;;14.73;;
38113;SDS011;23926;53.222;6.354;2022-10-04T05:50:27;22.20;;;15.65;;
38113;SDS011;23926;53.222;6.354;2022-10-04T05:53:06;22.63;;;15.18;;
38113;SDS011;23926;53.222;6.354;2022-10-04T05:58:32;28.27;;;15.95;;
38113;SDS011;23926;53.222;6.354;2022-10-04T06:22:42;29.23;;;15.95;;
38113;SDS011;23926;53.222;6.354;2022-10-04T06:25:12;28.42;;;17.63;;
38113;SDS011;23926;53.222;6.354;2022-10-04T06:27:49;24.23;;;15.88;;
38113;SDS011;23926;53.222;6.354;2022-10-04T06:30:30;33.38;;;19.23;;
38113;SDS011;23926;53.222;6.354;2022-10-04T06:47:20;25.60;;;15.52;;
38113;SDS011;23926;53.222;6.354;2022-10-04T06:55:37;25.80;;;14.90;;
38113;SDS011;23926;53.222;6.354;2022-10-04T07:01:30;32.08;;;19.23;;
38113;SDS011;23926;53.222;6.354;2022-10-04T07:06:45;26.40;;;16.23;;
38113;SDS011;23926;53.222;6.354;2022-10-04T07:09:23;24.45;;;14.98;;
38113;SDS011;23926;53.222;6.354;2022-10-04T07:11:53;27.38;;;14.98;;
38113;SDS011;23926;53.222;6.354;2022-10-04T07:15:07;21.20;;;14.45;;
38113;SDS011;23926;53.222;6.354;2022-10-04T07:17:16;23.70;;;15.35;;
38113;SDS011;23926;53.222;6.354;2022-10-04T07:19:47;24.77;;;14.65;;
38113;SDS011;23926;53.222;6.354;2022-10-04T07:30:51;22.42;;;16.33;;
38113;SDS011;23926;53.222;6.354;2022-10-04T07:33:26;23.23;;;15.18;;
38113;SDS011;23926;53.222;6.354;2022-10-04T07:36:04;22.98;;;13.88;;
38113;SDS011;23926;53.222;6.354;2022-10-04T07:38:36;27.95;;;15.13;;
38113;SDS011;23926;53.222;6.354;2022-10-04T07:44:01;21.95;;;14.00;;
38113;SDS011;23926;53.222;6.354;2022-10-04T07:49:22;21.90;;;13.40;;
38113;SDS011;23926;53.222;6.354;2022-10-04T07:57:52;18.52;;;11.85;;
38113;SDS011;23926;53.222;6.354;2022-10-04T08:00:24;19.27;;;14.55;;
38113;SDS011;23926;53.222;6.354;2022-10-04T08:25:02;22.65;;;13.82;;
38113;SDS011;23926;53.222;6.354;2022-10-04T08:36:55;22.30;;;12.77;;
38113;SDS011;23926;53.222;6.354;2022-10-04T09:01:39;24.88;;;13.18;;
38113;SDS011;23926;53.222;6.354;2022-10-04T09:10:29;24.08;;;12.77;;
38113;SDS011;23926;53.222;6.354;2022-10-04T09:18:47;25.35;;;15.35;;
38113;SDS011;23926;53.222;6.354;2022-10-04T09:21:25;20.73;;;15.68;;
38113;SDS011;23926;53.222;6.354;2022-10-04T09:46:12;13.77;;;9.82;;
38113;SDS011;23926;53.222;6.354;2022-10-04T10:08:25;22.90;;;13.38;;
38113;SDS011;23926;53.222;6.354;2022-10-04T10:20:07;19.38;;;12.75;;
38113;SDS011;23926;53.222;6.354;2022-10-04T10:22:52;23.75;;;13.68;;
38113;SDS011;23926;53.222;6.354;2022-10-04T10:25:34;22.15;;;13.23;;
38113;SDS011;23926;53.222;6.354;2022-10-04T10:30:59;21.17;;;13.63;;
38113;SDS011;23926;53.222;6.354;2022-10-04T10:44:46;18.10;;;12.02;;
38113;SDS011;23926;53.222;6.354;2022-10-04T10:47:29;17.58;;;11.90;;
38113;SDS011;23926;53.222;6.354;2022-10-04T11:04:29;22.75;;;12.43;;
38113;SDS011;23926;53.222;6.354;2022-10-04T11:12:54;15.50;;;10.95;;
38113;SDS011;23926;53.222;6.354;2022-10-04T11:24:55;14.85;;;10.20;;
38113;SDS011;23926;53.222;6.354;2022-10-04T11:33:43;18.80;;;10.30;;
38113;SDS011;23926;53.222;6.354;2022-10-04T11:36:37;16.60;;;11.43;;
38113;SDS011;23926;53.222;6.354;2022-10-04T11:48:01;17.13;;;10.10;;
38113;SDS011;23926;53.222;6.354;2022-10-04T11:59:17;18.33;;;9.85;;
38113;SDS011;23926;53.222;6.354;2022-10-04T12:02:03;16.67;;;10.68;;
38113;SDS011;23926;53.222;6.354;2022-10-04T12:05:19;14.50;;;9.75;;
38113;SDS011;23926;53.222;6.354;2022-10-04T12:22:06;15.68;;;9.90;;
38113;SDS011;23926;53.222;6.354;2022-10-04T12:30:26;20.58;;;9.23;;
38113;SDS011;23926;53.222;6.354;2022-10-04T12:33:13;18.65;;;9.68;;
38113;SDS011;23926;53.222;6.354;2022-10-04T12:35:56;15.25;;;9.10;;
38113;SDS011;23926;53.222;6.354;2022-10-04T12:38:43;12.55;;;8.52;;
38113;SDS011;23926;53.222;6.354;2022-10-04T12:52:44;14.43;;;8.13;;
38113;SDS011;23926;53.222;6.354;2022-10-04T12:58:17;12.73;;;7.78;;
38113;SDS011;23926;53.222;6.354;2022-10-04T13:00:54;14.85;;;8.40;;
38113;SDS011;23926;53.222;6.354;2022-10-04T13:03:29;9.48;;;7.50;;
38113;SDS011;23926;53.222;6.354;2022-10-04T13:06:24;11.55;;;8.27;;
38113;SDS011;23926;53.222;6.354;2022-10-04T13:09:10;13.68;;;8.38;;
38113;SDS011;23926;53.222;6.354;2022-10-04T13:17:16;11.93;;;7.53;;
38113;SDS011;23926;53.222;6.354;2022-10-04T13:25:25;12.98;;;8.77;;
38113;SDS011;23926;53.222;6.354;2022-10-04T13:30:50;14.63;;;9.10;;
38113;SDS011;23926;53.222;6.354;2022-10-04T13:33:50;12.73;;;8.35;;
38113;SDS011;23926;53.222;6.354;2022-10-04T13:36:52;13.15;;;8.25;;
38113;SDS011;23926;53.222;6.354;2022-10-04T13:43:19;13.60;;;8.00;;
38113;SDS011;23926;53.222;6.354;2022-10-04T13:54:42;13.52;;;7.97;;
38113;SDS011;23926;53.222;6.354;2022-10-04T13:57:41;12.98;;;7.95;;
38113;SDS011;23926;53.222;6.354;2022-10-04T14:00:13;13.65;;;7.63;;
38113;SDS011;23926;53.222;6.354;2022-10-04T14:03:08;11.63;;;7.85;;
38113;SDS011;23926;53.222;6.354;2022-10-04T14:06:03;10.38;;;7.40;;
38113;SDS011;23926;53.222;6.354;2022-10-04T14:09:12;13.60;;;7.68;;
38113;SDS011;23926;53.222;6.354;2022-10-04T14:14:45;15.35;;;8.07;;
38113;SDS011;23926;53.222;6.354;2022-10-04T14:23:11;12.55;;;7.70;;
38113;SDS011;23926;53.222;6.354;2022-10-04T14:28:43;13.25;;;6.57;;
38113;SDS011;23926;53.222;6.354;2022-10-04T14:31:42;9.05;;;6.53;;
38113;SDS011;23926;53.222;6.354;2022-10-04T14:39:53;11.02;;;6.07;;
38113;SDS011;23926;53.222;6.354;2022-10-04T15:07:01;14.45;;;5.78;;
38113;SDS011;23926;53.222;6.354;2022-10-04T15:17:26;9.93;;;6.13;;
38113;SDS011;23926;53.222;6.354;2022-10-04T15:20:14;11.60;;;5.65;;
38113;SDS011;23926;53.222;6.354;2022-10-04T15:22:45;9.82;;;5.93;;
38113;SDS011;23926;53.222;6.354;2022-10-04T15:30:34;9.20;;;6.32;;
38113;SDS011;23926;53.222;6.354;2022-10-04T15:33:24;9.50;;;6.20;;
38113;SDS011;23926;53.222;6.354;2022-10-04T15:41:33;8.93;;;5.80;;
38113;SDS011;23926;53.222;6.354;2022-10-04T15:46:43;7.90;;;5.50;;
38113;SDS011;23926;53.222;6.354;2022-10-04T16:00:45;9.60;;;6.05;;
38113;SDS011;23926;53.222;6.354;2022-10-04T16:03:38;9.45;;;5.47;;
38113;SDS011;23926;53.222;6.354;2022-10-04T16:06:11;12.13;;;6.63;;
38113;SDS011;23926;53.222;6.354;2022-10-04T16:14:02;7.97;;;5.57;;
38113;SDS011;23926;53.222;6.354;2022-10-04T16:22:10;9.05;;;5.55;;
38113;SDS011;23926;53.222;6.354;2022-10-04T16:27:21;11.57;;;5.47;;
38113;SDS011;23926;53.222;6.354;2022-10-04T16:32:40;8.65;;;5.68;;
38113;SDS011;23926;53.222;6.354;2022-10-04T16:35:29;11.48;;;5.70;;
38113;SDS011;23926;53.222;6.354;2022-10-04T16:53:44;8.52;;;6.20;;
38113;SDS011;23926;53.222;6.354;2022-10-04T16:56:25;11.60;;;6.40;;
38113;SDS011;23926;53.222;6.354;2022-10-04T17:06:55;10.38;;;5.35;;
38113;SDS011;23926;53.222;6.354;2022-10-04T17:09:31;13.75;;;6.95;;
38113;SDS011;23926;53.222;6.354;2022-10-04T17:26:06;7.90;;;5.90;;
38113;SDS011;23926;53.222;6.354;2022-10-04T17:28:34;11.13;;;6.13;;
38113;SDS011;23926;53.222;6.354;2022-10-04T17:41:57;15.90;;;7.60;;
38113;SDS011;23926;53.222;6.354;2022-10-04T17:47:40;12.85;;;7.10;;
38113;SDS011;23926;53.222;6.354;2022-10-04T17:53:44;13.98;;;7.22;;
38113;SDS011;23926;53.222;6.354;2022-10-04T17:56:35;15.65;;;7.30;;
38113;SDS011;23926;53.222;6.354;2022-10-04T17:59:08;12.73;;;6.85;;
38113;SDS011;23926;53.222;6.354;2022-10-04T18:01:41;11.05;;;6.70;;
38113;SDS011;23926;53.222;6.354;2022-10-04T18:04:15;10.38;;;7.10;;
38113;SDS011;23926;53.222;6.354;2022-10-04T18:06:48;12.30;;;7.70;;
38113;SDS011;23926;53.222;6.354;2022-10-04T18:09:21;12.52;;;7.28;;
38113;SDS011;23926;53.222;6.354;2022-10-04T18:12:30;10.60;;;7.05;;
38113;SDS011;23926;53.222;6.354;2022-10-04T18:14:58;11.60;;;6.90;;
38113;SDS011;23926;53.222;6.354;2022-10-04T18:17:34;9.50;;;6.75;;
38113;SDS011;23926;53.222;6.354;2022-10-04T18:22:54;15.73;;;6.78;;
38113;SDS011;23926;53.222;6.354;2022-10-04T18:25:25;12.95;;;8.15;;
38113;SDS011;23926;53.222;6.354;2022-10-04T18:28:00;12.38;;;7.35;;
38113;SDS011;23926;53.222;6.354;2022-10-04T18:33:12;11.85;;;6.90;;
38113;SDS011;23926;53.222;6.354;2022-10-04T18:35:48;11.90;;;6.50;;
38113;SDS011;23926;53.222;6.354;2022-10-04T18:38:20;12.85;;;7.75;;
38113;SDS011;23926;53.222;6.354;2022-10-04T18:40:57;15.43;;;7.60;;
38113;SDS011;23926;53.222;6.354;2022-10-04T18:43:30;12.90;;;7.40;;
38113;SDS011;23926;53.222;6.354;2022-10-04T18:46:03;12.57;;;7.10;;
38113;SDS011;23926;53.222;6.354;2022-10-04T18:53:57;12.05;;;7.70;;
38113;SDS011;23926;53.222;6.354;2022-10-04T19:00:02;12.45;;;7.22;;
38113;SDS011;23926;53.222;6.354;2022-10-04T19:03:00;14.32;;;7.95;;
38113;SDS011;23926;53.222;6.354;2022-10-04T19:05:50;14.82;;;9.13;;
38113;SDS011;23926;53.222;6.354;2022-10-04T19:11:22;15.35;;;8.68;;
38113;SDS011;23926;53.222;6.354;2022-10-04T19:13:58;15.48;;;8.85;;
38113;SDS011;23926;53.222;6.354;2022-10-04T19:16:49;12.00;;;7.63;;
38113;SDS011;23926;53.222;6.354;2022-10-04T19:27:13;12.85;;;8.02;;
38113;SDS011;23926;53.222;6.354;2022-10-04T19:32:32;13.65;;;8.90;;
38113;SDS011;23926;53.222;6.354;2022-10-04T19:43:01;17.38;;;10.30;;
38113;SDS011;23926;53.222;6.354;2022-10-04T19:45:41;21.27;;;9.95;;
38113;SDS011;23926;53.222;6.354;2022-10-04T19:48:13;14.02;;;9.38;;
38113;SDS011;23926;53.222;6.354;2022-10-04T19:50:47;13.63;;;9.13;;
38113;SDS011;23926;53.222;6.354;2022-10-04T19:53:18;16.30;;;9.73;;
38113;SDS011;23926;53.222;6.354;2022-10-04T19:55:50;16.35;;;9.70;;
38113;SDS011;23926;53.222;6.354;2022-10-04T19:58:39;17.52;;;9.25;;
38113;SDS011;23926;53.222;6.354;2022-10-04T20:01:12;15.13;;;9.45;;
38113;SDS011;23926;53.222;6.354;2022-10-04T20:06:08;16.05;;;9.02;;
38113;SDS011;23926;53.222;6.354;2022-10-04T20:13:47;13.60;;;9.30;;
38113;SDS011;23926;53.222;6.354;2022-10-04T20:19:19;13.23;;;9.73;;
38113;SDS011;23926;53.222;6.354;2022-10-04T20:27:01;14.65;;;9.93;;
38113;SDS011;23926;53.222;6.354;2022-10-04T20:32:02;14.60;;;10.57;;
38113;SDS011;23926;53.222;6.354;2022-10-04T20:37:07;22.35;;;10.80;;
38113;SDS011;23926;53.222;6.354;2022-10-04T20:42:08;16.13;;;10.43;;
38113;SDS011;23926;53.222;6.354;2022-10-04T20:47:34;14.43;;;10.32;;
38113;SDS011;23926;53.222;6.354;2022-10-04T20:52:36;14.13;;;10.25;;
38113;SDS011;23926;53.222;6.354;2022-10-04T20:55:07;15.55;;;9.82;;
38113;SDS011;23926;53.222;6.354;2022-10-04T20:57:41;14.68;;;10.23;;
38113;SDS011;23926;53.222;6.354;2022-10-04T21:00:15;16.33;;;11.20;;
38113;SDS011;23926;53.222;6.354;2022-10-04T21:02:42;16.02;;;10.32;;
38113;SDS011;23926;53.222;6.354;2022-10-04T21:05:14;19.15;;;10.23;;
38113;SDS011;23926;53.222;6.354;2022-10-04T21:07:47;13.13;;;9.90;;
38113;SDS011;23926;53.222;6.354;2022-10-04T21:10:17;13.80;;;9.77;;
38113;SDS011;23926;53.222;6.354;2022-10-04T21:12:44;15.25;;;10.18;;
38113;SDS011;23926;53.222;6.354;2022-10-04T21:17:41;14.40;;;10.55;;
38113;SDS011;23926;53.222;6.354;2022-10-04T21:20:39;18.58;;;10.35;;
38113;SDS011;23926;53.222;6.354;2022-10-04T21:23:19;17.85;;;11.65;;
38113;SDS011;23926;53.222;6.354;2022-10-04T21:26:16;14.90;;;10.93;;
38113;SDS011;23926;53.222;6.354;2022-10-04T21:28:57;19.48;;;11.18;;
38113;SDS011;23926;53.222;6.354;2022-10-04T21:31:23;18.13;;;10.82;;
38113;SDS011;23926;53.222;6.354;2022-10-04T21:33:49;18.38;;;11.52;;
38113;SDS011;23926;53.222;6.354;2022-10-04T21:36:15;13.60;;;10.20;;
38113;SDS011;23926;53.222;6.354;2022-10-04T21:38:40;19.63;;;10.88;;
38113;SDS011;23926;53.222;6.354;2022-10-04T21:41:05;17.38;;;10.52;;
38113;SDS011;23926;53.222;6.354;2022-10-04T21:43:31;18.75;;;10.82;;
38113;SDS011;23926;53.222;6.354;2022-10-04T21:45:57;18.55;;;12.25;;
38113;SDS011;23926;53.222;6.354;2022-10-04T21:48:23;17.65;;;10.93;;
38113;SDS011;23926;53.222;6.354;2022-10-04T21:50:49;13.80;;;9.63;;
38113;SDS011;23926;53.222;6.354;2022-10-04T21:53:16;12.85;;;10.15;;
38113;SDS011;23926;53.222;6.354;2022-10-04T21:55:41;15.52;;;10.77;;
38113;SDS011;23926;53.222;6.354;2022-10-04T21:58:06;16.20;;;10.57;;
38113;SDS011;23926;53.222;6.354;2022-10-04T22:00:32;20.70;;;11.65;;
38113;SDS011;23926;53.222;6.354;2022-10-04T22:02:58;15.85;;;11.43;;
38113;SDS011;23926;53.222;6.354;2022-10-04T22:05:24;16.08;;;10.43;;
38113;SDS011;23926;53.222;6.354;2022-10-04T22:07:49;24.00;;;12.82;;
38113;SDS011;23926;53.222;6.354;2022-10-04T22:10:14;19.50;;;11.38;;
38113;SDS011;23926;53.222;6.354;2022-10-04T22:12:40;17.70;;;11.18;;
38113;SDS011;23926;53.222;6.354;2022-10-04T22:15:05;15.57;;;10.55;;
38113;SDS011;23926;53.222;6.354;2022-10-04T22:17:31;18.83;;;11.52;;
38113;SDS011;23926;53.222;6.354;2022-10-04T22:19:57;21.77;;;12.23;;
38113;SDS011;23926;53.222;6.354;2022-10-04T22:22:22;17.92;;;11.60;;
38113;SDS011;23926;53.222;6.354;2022-10-04T22:24:48;16.85;;;11.80;;
38113;SDS011;23926;53.222;6.354;2022-10-04T22:27:14;18.40;;;10.88;;
38113;SDS011;23926;53.222;6.354;2022-10-04T22:29:42;16.92;;;10.63;;
38113;SDS011;23926;53.222;6.354;2022-10-04T22:32:09;18.67;;;12.25;;
38113;SDS011;23926;53.222;6.354;2022-10-04T22:34:37;13.70;;;10.80;;
38113;SDS011;23926;53.222;6.354;2022-10-04T22:37:02;20.85;;;11.85;;
38113;SDS011;23926;53.222;6.354;2022-10-04T22:39:29;20.15;;;11.93;;
38113;SDS011;23926;53.222;6.354;2022-10-04T22:41:57;20.80;;;10.90;;
38113;SDS011;23926;53.222;6.354;2022-10-04T22:44:25;16.70;;;10.25;;
38113;SDS011;23926;53.222;6.354;2022-10-04T22:46:54;15.13;;;10.95;;
38113;SDS011;23926;53.222;6.354;2022-10-04T22:49:22;19.63;;;11.50;;
38113;SDS011;23926;53.222;6.354;2022-10-04T22:52:40;15.82;;;10.18;;
38113;SDS011;23926;53.222;6.354;2022-10-04T22:54:59;14.75;;;10.30;;
38113;SDS011;23926;53.222;6.354;2022-10-04T22:57:26;13.90;;;10.10;;
38113;SDS011;23926;53.222;6.354;2022-10-04T22:59:54;15.65;;;10.98;;
38113;SDS011;23926;53.222;6.354;2022-10-04T23:02:20;13.10;;;9.85;;
38113;SDS011;23926;53.222;6.354;2022-10-04T23:04:51;17.95;;;11.88;;
38113;SDS011;23926;53.222;6.354;2022-10-04T23:07:18;18.08;;;11.73;;
38113;SDS011;23926;53.222;6.354;2022-10-04T23:09:44;15.70;;;10.50;;
38113;SDS011;23926;53.222;6.354;2022-10-04T23:12:10;15.35;;;11.20;;
38113;SDS011;23926;53.222;6.354;2022-10-04T23:14:36;17.70;;;11.63;;
38113;SDS011;23926;53.222;6.354;2022-10-04T23:17:04;14.32;;;10.85;;
38113;SDS011;23926;53.222;6.354;2022-10-04T23:19:41;19.40;;;12.68;;
38113;SDS011;23926;53.222;6.354;2022-10-04T23:22:08;18.83;;;12.10;;
38113;SDS011;23926;53.222;6.354;2022-10-04T23:24:38;16.25;;;11.30;;
38113;SDS011;23926;53.222;6.354;2022-10-04T23:27:05;14.40;;;11.10;;
38113;SDS011;23926;53.222;6.354;2022-10-04T23:29:38;13.23;;;9.85;;
38113;SDS011;23926;53.222;6.354;2022-10-04T23:32:14;17.58;;;11.55;;
38113;SDS011;23926;53.222;6.354;2022-10-04T23:34:42;17.88;;;11.95;;
38113;SDS011;23926;53.222;6.354;2022-10-04T23:37:12;16.35;;;11.35;;
38113;SDS011;23926;53.222;6.354;2022-10-04T23:39:56;20.23;;;11.85;;
38113;SDS011;23926;53.222;6.354;2022-10-04T23:42:23;18.67;;;12.10;;
38113;SDS011;23926;53.222;6.354;2022-10-04T23:44:54;18.17;;;10.57;;
38113;SDS011;23926;53.222;6.354;2022-10-04T23:47:21;16.58;;;11.80;;
38113;SDS011;23926;53.222;6.354;2022-10-04T23:49:49;15.95;;;11.35;;
38113;SDS011;23926;53.222;6.354;2022-10-04T23:52:35;18.35;;;12.20;;
38113;SDS011;23926;53.222;6.354;2022-10-04T23:55:09;16.73;;;11.23;;
38113;SDS011;23926;53.222;6.354;2022-10-04T23:57:40;16.88;;;11.68;;
